sensor_id;sensor_type;location;lat;lon;timestamp;pressure;altitude;pressure_sealevel;temperature;humidity
19286;BME280;9776;50.798;6.430;2023-08-06T00:00:12;99012.56;;;18.47;65.20
19286;BME280;9776;50.798;6.430;2023-08-06T00:02:39;99010.72;;;18.48;65.24
19286;BME280;9776;50.798;6.430;2023-08-06T00:05:07;99020.59;;;18.47;65.31
19286;BME280;9776;50.798;6.430;2023-08-06T00:07:35;99019.81;;;18.47;65.35
19286;BME280;9776;50.798;6.430;2023-08-06T00:10:01;99015.50;;;18.46;65.33
19286;BME280;9776;50.798;6.430;2023-08-06T00:12:28;99018.97;;;18.46;65.29
19286;BME280;9776;50.798;6.430;2023-08-06T00:14:55;99020.84;;;18.46;65.51
19286;BME280;9776;50.798;6.430;2023-08-06T00:17:21;99013.28;;;18.43;65.67
19286;BME280;9776;50.798;6.430;2023-08-06T00:19:48;99008.16;;;18.41;65.38
19286;BME280;9776;50.798;6.430;2023-08-06T00:22:15;99010.25;;;18.39;65.84
19286;BME280;9776;50.798;6.430;2023-08-06T00:24:43;99006.75;;;18.39;65.54
19286;BME280;9776;50.798;6.430;2023-08-06T00:27:09;99013.03;;;18.33;65.79
19286;BME280;9776;50.798;6.430;2023-08-06T00:29:36;99013.28;;;18.31;65.95
19286;BME280;9776;50.798;6.430;2023-08-06T00:32:03;99016.66;;;18.27;66.10
19286;BME280;9776;50.798;6.430;2023-08-06T00:34:30;99020.34;;;18.26;65.90
19286;BME280;9776;50.798;6.430;2023-08-06T00:36:56;99018.59;;;18.20;66.25
19286;BME280;9776;50.798;6.430;2023-08-06T00:39:23;99019.75;;;18.12;66.42
19286;BME280;9776;50.798;6.430;2023-08-06T00:41:51;99018.81;;;18.06;66.33
19286;BME280;9776;50.798;6.430;2023-08-06T00:44:18;99013.94;;;18.03;66.34
19286;BME280;9776;50.798;6.430;2023-08-06T00:46:44;99011.72;;;18.00;66.53
19286;BME280;9776;50.798;6.430;2023-08-06T00:49:11;99007.41;;;17.99;66.30
19286;BME280;9776;50.798;6.430;2023-08-06T00:51:38;99015.88;;;17.96;66.29
19286;BME280;9776;50.798;6.430;2023-08-06T00:54:05;99021.47;;;17.95;66.64
19286;BME280;9776;50.798;6.430;2023-08-06T00:56:32;99012.72;;;17.88;66.44
19286;BME280;9776;50.798;6.430;2023-08-06T00:59:02;99014.69;;;17.92;66.67
19286;BME280;9776;50.798;6.430;2023-08-06T01:01:29;99014.13;;;17.90;66.53
19286;BME280;9776;50.798;6.430;2023-08-06T01:03:56;99015.03;;;17.84;66.50
19286;BME280;9776;50.798;6.430;2023-08-06T01:06:31;99011.22;;;17.80;66.54
19286;BME280;9776;50.798;6.430;2023-08-06T01:09:07;99009.09;;;17.71;66.96
19286;BME280;9776;50.798;6.430;2023-08-06T01:11:42;99005.91;;;17.62;67.39
19286;BME280;9776;50.798;6.430;2023-08-06T01:14:16;99010.44;;;17.62;67.07
19286;BME280;9776;50.798;6.430;2023-08-06T01:16:45;99014.28;;;17.66;67.03
19286;BME280;9776;50.798;6.430;2023-08-06T01:19:16;99012.78;;;17.70;67.07
19286;BME280;9776;50.798;6.430;2023-08-06T01:21:44;99009.44;;;17.74;66.97
19286;BME280;9776;50.798;6.430;2023-08-06T01:24:11;99002.03;;;17.76;66.90
19286;BME280;9776;50.798;6.430;2023-08-06T01:26:42;98993.31;;;17.81;66.80
19286;BME280;9776;50.798;6.430;2023-08-06T01:29:16;98997.88;;;17.80;66.92
19286;BME280;9776;50.798;6.430;2023-08-06T01:31:48;98999.94;;;17.78;66.78
19286;BME280;9776;50.798;6.430;2023-08-06T01:34:17;99002.84;;;17.77;66.90
19286;BME280;9776;50.798;6.430;2023-08-06T01:36:48;98993.22;;;17.87;66.84
19286;BME280;9776;50.798;6.430;2023-08-06T01:39:16;98993.13;;;17.94;66.88
19286;BME280;9776;50.798;6.430;2023-08-06T01:41:46;98987.25;;;18.03;66.86
19286;BME280;9776;50.798;6.430;2023-08-06T01:44:13;98977.72;;;18.07;66.41
19286;BME280;9776;50.798;6.430;2023-08-06T01:46:40;98978.88;;;18.11;66.36
19286;BME280;9776;50.798;6.430;2023-08-06T01:49:07;98986.44;;;18.14;66.21
19286;BME280;9776;50.798;6.430;2023-08-06T01:51:33;98976.34;;;18.17;66.37
19286;BME280;9776;50.798;6.430;2023-08-06T01:54:02;98970.41;;;18.14;66.38
19286;BME280;9776;50.798;6.430;2023-08-06T01:56:28;98974.69;;;18.15;66.50
19286;BME280;9776;50.798;6.430;2023-08-06T01:58:55;98980.94;;;18.09;66.41
19286;BME280;9776;50.798;6.430;2023-08-06T02:01:22;98975.16;;;18.12;66.19
19286;BME280;9776;50.798;6.430;2023-08-06T02:03:48;98974.69;;;18.15;66.16
19286;BME280;9776;50.798;6.430;2023-08-06T02:06:15;98970.53;;;18.20;66.00
19286;BME280;9776;50.798;6.430;2023-08-06T02:08:42;98963.56;;;18.19;66.23
19286;BME280;9776;50.798;6.430;2023-08-06T02:11:10;98962.88;;;18.23;66.08
19286;BME280;9776;50.798;6.430;2023-08-06T02:13:36;98956.16;;;18.21;66.23
19286;BME280;9776;50.798;6.430;2023-08-06T02:16:03;98965.56;;;18.23;66.01
19286;BME280;9776;50.798;6.430;2023-08-06T02:18:30;98958.22;;;18.19;66.28
19286;BME280;9776;50.798;6.430;2023-08-06T02:20:57;98962.16;;;18.04;66.48
19286;BME280;9776;50.798;6.430;2023-08-06T02:23:24;98957.13;;;17.85;67.21
19286;BME280;9776;50.798;6.430;2023-08-06T02:25:57;98958.97;;;17.73;67.20
19286;BME280;9776;50.798;6.430;2023-08-06T02:28:25;98960.13;;;17.65;67.62
19286;BME280;9776;50.798;6.430;2023-08-06T02:30:51;98955.34;;;17.67;67.57
19286;BME280;9776;50.798;6.430;2023-08-06T02:33:18;98947.00;;;17.75;67.45
19286;BME280;9776;50.798;6.430;2023-08-06T02:35:45;98936.47;;;17.80;67.67
19286;BME280;9776;50.798;6.430;2023-08-06T02:38:12;98939.84;;;17.87;67.42
19286;BME280;9776;50.798;6.430;2023-08-06T02:40:43;98941.13;;;17.96;67.30
19286;BME280;9776;50.798;6.430;2023-08-06T02:43:11;98931.50;;;17.95;67.28
19286;BME280;9776;50.798;6.430;2023-08-06T02:45:39;98936.81;;;17.95;67.28
19286;BME280;9776;50.798;6.430;2023-08-06T02:48:06;98932.88;;;17.98;67.30
19286;BME280;9776;50.798;6.430;2023-08-06T02:50:38;98930.13;;;18.04;67.01
19286;BME280;9776;50.798;6.430;2023-08-06T02:53:05;98931.75;;;18.05;67.02
19286;BME280;9776;50.798;6.430;2023-08-06T02:55:32;98932.31;;;18.07;66.97
19286;BME280;9776;50.798;6.430;2023-08-06T02:57:59;98931.97;;;18.04;66.98
19286;BME280;9776;50.798;6.430;2023-08-06T03:00:26;98931.03;;;17.98;67.32
19286;BME280;9776;50.798;6.430;2023-08-06T03:02:54;98933.13;;;17.85;67.94
19286;BME280;9776;50.798;6.430;2023-08-06T03:05:21;98933.09;;;17.73;67.93
19286;BME280;9776;50.798;6.430;2023-08-06T03:07:48;98927.66;;;17.80;68.05
19286;BME280;9776;50.798;6.430;2023-08-06T03:10:14;98928.34;;;17.87;67.96
19286;BME280;9776;50.798;6.430;2023-08-06T03:12:41;98932.56;;;17.94;67.90
19286;BME280;9776;50.798;6.430;2023-08-06T03:15:09;98923.63;;;18.00;67.49
19286;BME280;9776;50.798;6.430;2023-08-06T03:17:35;98928.97;;;18.00;67.65
19286;BME280;9776;50.798;6.430;2023-08-06T03:20:05;98919.44;;;18.04;67.37
19286;BME280;9776;50.798;6.430;2023-08-06T03:22:31;98918.88;;;18.02;67.52
19286;BME280;9776;50.798;6.430;2023-08-06T03:24:58;98921.53;;;18.02;67.33
19286;BME280;9776;50.798;6.430;2023-08-06T03:27:25;98919.44;;;18.04;67.24
19286;BME280;9776;50.798;6.430;2023-08-06T03:29:51;98923.75;;;18.05;67.20
19286;BME280;9776;50.798;6.430;2023-08-06T03:32:18;98927.22;;;18.06;67.52
19286;BME280;9776;50.798;6.430;2023-08-06T03:34:45;98920.03;;;18.06;67.57
19286;BME280;9776;50.798;6.430;2023-08-06T03:37:13;98918.75;;;18.09;67.42
19286;BME280;9776;50.798;6.430;2023-08-06T03:39:40;98918.97;;;18.07;67.42
19286;BME280;9776;50.798;6.430;2023-08-06T03:42:06;98918.16;;;18.07;67.56
19286;BME280;9776;50.798;6.430;2023-08-06T03:44:33;98920.03;;;18.06;67.77
19286;BME280;9776;50.798;6.430;2023-08-06T03:47:00;98919.22;;;18.06;67.70
19286;BME280;9776;50.798;6.430;2023-08-06T03:49:26;98914.09;;;18.04;67.97
19286;BME280;9776;50.798;6.430;2023-08-06T03:51:53;98913.16;;;17.99;68.15
19286;BME280;9776;50.798;6.430;2023-08-06T03:54:22;98908.06;;;17.97;68.00
19286;BME280;9776;50.798;6.430;2023-08-06T03:56:49;98911.41;;;17.93;68.32
19286;BME280;9776;50.798;6.430;2023-08-06T03:59:16;98919.41;;;17.93;68.57
19286;BME280;9776;50.798;6.430;2023-08-06T04:01:43;98917.00;;;17.91;68.33
19286;BME280;9776;50.798;6.430;2023-08-06T04:04:09;98926.28;;;17.89;68.69
19286;BME280;9776;50.798;6.430;2023-08-06T04:06:36;98920.00;;;17.83;68.91
19286;BME280;9776;50.798;6.430;2023-08-06T04:09:02;98910.94;;;17.84;68.73
19286;BME280;9776;50.798;6.430;2023-08-06T04:11:31;98919.06;;;17.89;68.87
19286;BME280;9776;50.798;6.430;2023-08-06T04:13:57;98917.91;;;17.85;68.95
19286;BME280;9776;50.798;6.430;2023-08-06T04:16:24;98918.94;;;17.84;69.16
19286;BME280;9776;50.798;6.430;2023-08-06T04:18:52;98918.94;;;17.84;69.04
19286;BME280;9776;50.798;6.430;2023-08-06T04:21:20;98921.88;;;17.83;69.07
19286;BME280;9776;50.798;6.430;2023-08-06T04:23:47;98918.38;;;17.82;69.47
19286;BME280;9776;50.798;6.430;2023-08-06T04:26:14;98921.03;;;17.82;69.39
19286;BME280;9776;50.798;6.430;2023-08-06T04:28:42;98919.41;;;17.81;69.34
19286;BME280;9776;50.798;6.430;2023-08-06T04:31:08;98916.63;;;17.76;69.40
19286;BME280;9776;50.798;6.430;2023-08-06T04:33:35;98919.19;;;17.71;69.74
19286;BME280;9776;50.798;6.430;2023-08-06T04:36:02;98916.38;;;17.66;70.02
19286;BME280;9776;50.798;6.430;2023-08-06T04:38:29;98915.41;;;17.61;70.16
19286;BME280;9776;50.798;6.430;2023-08-06T04:40:56;98918.78;;;17.56;70.25
19286;BME280;9776;50.798;6.430;2023-08-06T04:43:22;98920.03;;;17.53;70.11
19286;BME280;9776;50.798;6.430;2023-08-06T04:45:53;98921.88;;;17.53;70.43
19286;BME280;9776;50.798;6.430;2023-08-06T04:48:19;98925.16;;;17.55;70.66
19286;BME280;9776;50.798;6.430;2023-08-06T04:50:47;98922.84;;;17.58;70.54
19286;BME280;9776;50.798;6.430;2023-08-06T04:53:14;98921.81;;;17.60;70.44
19286;BME280;9776;50.798;6.430;2023-08-06T04:55:41;98927.50;;;17.63;70.57
19286;BME280;9776;50.798;6.430;2023-08-06T04:58:09;98930.31;;;17.68;70.60
19286;BME280;9776;50.798;6.430;2023-08-06T05:00:36;98936.66;;;17.67;70.99
19286;BME280;9776;50.798;6.430;2023-08-06T05:03:05;98929.50;;;17.68;71.01
19286;BME280;9776;50.798;6.430;2023-08-06T05:05:32;98934.13;;;17.72;70.98
19286;BME280;9776;50.798;6.430;2023-08-06T05:07:59;98932.59;;;17.65;71.27
19286;BME280;9776;50.798;6.430;2023-08-06T05:10:26;98938.84;;;17.58;71.77
19286;BME280;9776;50.798;6.430;2023-08-06T05:12:52;98937.81;;;17.60;71.81
19286;BME280;9776;50.798;6.430;2023-08-06T05:15:19;98944.13;;;17.47;71.92
19286;BME280;9776;50.798;6.430;2023-08-06T05:17:46;98943.53;;;17.45;72.13
19286;BME280;9776;50.798;6.430;2023-08-06T05:20:14;98945.03;;;17.41;72.41
19286;BME280;9776;50.798;6.430;2023-08-06T05:22:41;98946.66;;;17.42;72.40
19286;BME280;9776;50.798;6.430;2023-08-06T05:25:08;98938.34;;;17.50;72.51
19286;BME280;9776;50.798;6.430;2023-08-06T05:27:34;98938.66;;;17.60;71.99
19286;BME280;9776;50.798;6.430;2023-08-06T05:30:01;98942.00;;;17.67;71.89
19286;BME280;9776;50.798;6.430;2023-08-06T05:32:28;98944.22;;;17.70;71.70
19286;BME280;9776;50.798;6.430;2023-08-06T05:34:55;98945.03;;;17.71;71.76
19286;BME280;9776;50.798;6.430;2023-08-06T05:37:23;98948.41;;;17.78;71.63
19286;BME280;9776;50.798;6.430;2023-08-06T05:39:50;98947.50;;;17.84;71.34
19286;BME280;9776;50.798;6.430;2023-08-06T05:42:16;98949.16;;;17.96;71.18
19286;BME280;9776;50.798;6.430;2023-08-06T05:44:43;98950.66;;;18.04;71.21
19286;BME280;9776;50.798;6.430;2023-08-06T05:47:10;98954.25;;;18.09;70.79
19286;BME280;9776;50.798;6.430;2023-08-06T05:49:37;98960.31;;;18.17;70.90
19286;BME280;9776;50.798;6.430;2023-08-06T05:52:04;98963.00;;;18.28;70.50
19286;BME280;9776;50.798;6.430;2023-08-06T05:54:35;98960.31;;;18.40;70.43
19286;BME280;9776;50.798;6.430;2023-08-06T05:57:01;98962.19;;;18.51;70.06
19286;BME280;9776;50.798;6.430;2023-08-06T05:59:28;98971.50;;;18.48;70.22
19286;BME280;9776;50.798;6.430;2023-08-06T06:01:55;98968.69;;;18.43;70.01
19286;BME280;9776;50.798;6.430;2023-08-06T06:04:22;98970.66;;;18.36;70.54
19286;BME280;9776;50.798;6.430;2023-08-06T06:06:48;98967.75;;;18.38;70.19
19286;BME280;9776;50.798;6.430;2023-08-06T06:09:15;98970.75;;;18.41;69.96
19286;BME280;9776;50.798;6.430;2023-08-06T06:11:44;98969.50;;;18.44;70.04
19286;BME280;9776;50.798;6.430;2023-08-06T06:14:10;98966.84;;;18.44;70.08
19286;BME280;9776;50.798;6.430;2023-08-06T06:16:37;98975.56;;;18.51;69.92
19286;BME280;9776;50.798;6.430;2023-08-06T06:19:04;98985.78;;;18.65;69.75
19286;BME280;9776;50.798;6.430;2023-08-06T06:21:31;98983.56;;;18.74;69.34
19286;BME280;9776;50.798;6.430;2023-08-06T06:23:57;98986.47;;;18.73;69.49
19286;BME280;9776;50.798;6.430;2023-08-06T06:26:24;98987.25;;;18.73;69.20
19286;BME280;9776;50.798;6.430;2023-08-06T06:28:52;98988.91;;;18.74;69.15
19286;BME280;9776;50.798;6.430;2023-08-06T06:31:19;98996.34;;;18.72;69.16
19286;BME280;9776;50.798;6.430;2023-08-06T06:33:45;98991.00;;;18.60;69.49
19286;BME280;9776;50.798;6.430;2023-08-06T06:36:12;98997.41;;;18.59;69.50
19286;BME280;9776;50.798;6.430;2023-08-06T06:38:39;99009.13;;;18.70;69.27
19286;BME280;9776;50.798;6.430;2023-08-06T06:41:06;99004.59;;;18.70;69.02
19286;BME280;9776;50.798;6.430;2023-08-06T06:43:32;99012.38;;;18.72;69.16
19286;BME280;9776;50.798;6.430;2023-08-06T06:46:00;99005.97;;;18.73;68.71
19286;BME280;9776;50.798;6.430;2023-08-06T06:48:28;99010.28;;;18.74;68.86
19286;BME280;9776;50.798;6.430;2023-08-06T06:50:55;99010.16;;;18.81;68.71
19286;BME280;9776;50.798;6.430;2023-08-06T06:53:22;99007.41;;;18.76;68.86
19286;BME280;9776;50.798;6.430;2023-08-06T06:55:52;99008.66;;;18.73;68.65
19286;BME280;9776;50.798;6.430;2023-08-06T06:58:19;99011.78;;;18.70;68.92
19286;BME280;9776;50.798;6.430;2023-08-06T07:00:46;99010.19;;;18.69;68.70
19286;BME280;9776;50.798;6.430;2023-08-06T07:03:14;99019.81;;;18.70;68.72
19286;BME280;9776;50.798;6.430;2023-08-06T07:05:43;99017.38;;;18.68;68.97
19286;BME280;9776;50.798;6.430;2023-08-06T07:08:09;99013.06;;;18.67;68.78
19286;BME280;9776;50.798;6.430;2023-08-06T07:10:36;99018.19;;;18.69;68.74
19286;BME280;9776;50.798;6.430;2023-08-06T07:13:03;99020.41;;;18.72;68.70
19286;BME280;9776;50.798;6.430;2023-08-06T07:15:30;99020.75;;;18.76;68.49
19286;BME280;9776;50.798;6.430;2023-08-06T07:17:57;99023.28;;;18.70;68.62
19286;BME280;9776;50.798;6.430;2023-08-06T07:20:25;99032.03;;;18.66;68.62
19286;BME280;9776;50.798;6.430;2023-08-06T07:22:54;99032.13;;;18.59;68.60
19286;BME280;9776;50.798;6.430;2023-08-06T07:25:21;99030.28;;;18.60;68.83
19286;BME280;9776;50.798;6.430;2023-08-06T07:27:47;99040.50;;;18.63;68.61
19286;BME280;9776;50.798;6.430;2023-08-06T07:30:14;99033.53;;;18.74;68.75
19286;BME280;9776;50.798;6.430;2023-08-06T07:32:42;99031.91;;;18.84;68.36
19286;BME280;9776;50.798;6.430;2023-08-06T07:35:09;99041.16;;;18.93;68.46
19286;BME280;9776;50.798;6.430;2023-08-06T07:37:41;99048.97;;;18.95;68.40
19286;BME280;9776;50.798;6.430;2023-08-06T07:40:08;99055.13;;;18.95;68.43
19286;BME280;9776;50.798;6.430;2023-08-06T07:42:35;99048.50;;;18.98;68.30
19286;BME280;9776;50.798;6.430;2023-08-06T07:45:02;99050.38;;;18.97;68.71
19286;BME280;9776;50.798;6.430;2023-08-06T07:47:29;99050.47;;;18.91;68.78
19286;BME280;9776;50.798;6.430;2023-08-06T07:49:56;99060.50;;;18.84;69.11
19286;BME280;9776;50.798;6.430;2023-08-06T07:52:22;99055.03;;;18.79;69.27
19286;BME280;9776;50.798;6.430;2023-08-06T07:54:50;99055.38;;;18.70;69.61
19286;BME280;9776;50.798;6.430;2023-08-06T07:57:17;99058.63;;;18.61;69.91
19286;BME280;9776;50.798;6.430;2023-08-06T07:59:44;99067.44;;;18.50;70.23
19286;BME280;9776;50.798;6.430;2023-08-06T08:02:10;99065.53;;;18.39;70.46
19286;BME280;9776;50.798;6.430;2023-08-06T08:04:37;99074.22;;;18.23;71.21
19286;BME280;9776;50.798;6.430;2023-08-06T08:07:04;99088.41;;;17.93;71.92
19286;BME280;9776;50.798;6.430;2023-08-06T08:09:31;99082.53;;;17.73;72.21
19286;BME280;9776;50.798;6.430;2023-08-06T08:11:59;99089.13;;;17.71;72.11
19286;BME280;9776;50.798;6.430;2023-08-06T08:14:28;99088.63;;;17.62;72.35
19286;BME280;9776;50.798;6.430;2023-08-06T08:17:00;99095.25;;;17.60;72.52
19286;BME280;9776;50.798;6.430;2023-08-06T08:19:27;99102.19;;;17.61;72.61
19286;BME280;9776;50.798;6.430;2023-08-06T08:21:53;99095.09;;;17.54;72.72
19286;BME280;9776;50.798;6.430;2023-08-06T08:24:20;99102.56;;;17.46;72.69
19286;BME280;9776;50.798;6.430;2023-08-06T08:26:49;99105.81;;;17.48;72.80
19286;BME280;9776;50.798;6.430;2023-08-06T08:29:17;99108.84;;;17.51;72.75
19286;BME280;9776;50.798;6.430;2023-08-06T08:31:43;99114.63;;;17.48;73.04
19286;BME280;9776;50.798;6.430;2023-08-06T08:34:10;99123.63;;;17.54;73.01
19286;BME280;9776;50.798;6.430;2023-08-06T08:36:37;99113.06;;;17.41;73.01
19286;BME280;9776;50.798;6.430;2023-08-06T08:39:04;99123.59;;;17.36;73.11
19286;BME280;9776;50.798;6.430;2023-08-06T08:41:31;99134.78;;;17.26;73.46
19286;BME280;9776;50.798;6.430;2023-08-06T08:44:00;99139.28;;;17.08;73.67
19286;BME280;9776;50.798;6.430;2023-08-06T08:46:29;99148.16;;;17.01;73.71
19286;BME280;9776;50.798;6.430;2023-08-06T08:48:59;99141.63;;;16.97;73.69
19286;BME280;9776;50.798;6.430;2023-08-06T08:51:27;99160.72;;;16.94;73.60
19286;BME280;9776;50.798;6.430;2023-08-06T08:53:55;99154.34;;;16.95;73.55
19286;BME280;9776;50.798;6.430;2023-08-06T08:56:23;99152.72;;;16.94;73.58
19286;BME280;9776;50.798;6.430;2023-08-06T08:58:50;99156.59;;;16.98;73.48
19286;BME280;9776;50.798;6.430;2023-08-06T09:01:18;99165.84;;;16.96;73.42
19286;BME280;9776;50.798;6.430;2023-08-06T09:03:48;99167.44;;;16.97;73.33
19286;BME280;9776;50.798;6.430;2023-08-06T09:06:17;99174.28;;;16.93;73.40
19286;BME280;9776;50.798;6.430;2023-08-06T09:08:51;99182.75;;;16.83;73.87
19286;BME280;9776;50.798;6.430;2023-08-06T09:11:19;99193.09;;;16.73;74.30
19286;BME280;9776;50.798;6.430;2023-08-06T09:13:47;99202.75;;;16.68;74.49
19286;BME280;9776;50.798;6.430;2023-08-06T09:16:14;99212.88;;;16.59;74.69
19286;BME280;9776;50.798;6.430;2023-08-06T09:18:41;99210.81;;;16.48;74.68
19286;BME280;9776;50.798;6.430;2023-08-06T09:21:14;99227.28;;;16.38;74.95
19286;BME280;9776;50.798;6.430;2023-08-06T09:23:44;99226.09;;;16.28;75.52
19286;BME280;9776;50.798;6.430;2023-08-06T09:26:13;99229.00;;;16.20;75.37
19286;BME280;9776;50.798;6.430;2023-08-06T09:28:40;99246.88;;;16.13;75.64
19286;BME280;9776;50.798;6.430;2023-08-06T09:31:08;99252.81;;;16.08;75.92
19286;BME280;9776;50.798;6.430;2023-08-06T09:33:37;99269.44;;;16.04;75.84
19286;BME280;9776;50.798;6.430;2023-08-06T09:36:12;99267.19;;;16.01;75.76
19286;BME280;9776;50.798;6.430;2023-08-06T09:38:40;99275.38;;;15.99;76.19
19286;BME280;9776;50.798;6.430;2023-08-06T09:41:07;99269.69;;;15.89;75.97
19286;BME280;9776;50.798;6.430;2023-08-06T09:43:41;99292.22;;;15.73;76.47
19286;BME280;9776;50.798;6.430;2023-08-06T09:46:12;99291.00;;;15.69;76.45
19286;BME280;9776;50.798;6.430;2023-08-06T09:48:39;99287.94;;;15.66;76.41
19286;BME280;9776;50.798;6.430;2023-08-06T09:51:08;99295.94;;;15.66;76.39
19286;BME280;9776;50.798;6.430;2023-08-06T09:53:37;99295.91;;;15.72;76.29
19286;BME280;9776;50.798;6.430;2023-08-06T09:56:04;99306.94;;;15.82;76.09
19286;BME280;9776;50.798;6.430;2023-08-06T09:58:32;99310.41;;;15.89;75.91
19286;BME280;9776;50.798;6.430;2023-08-06T10:00:59;99316.34;;;15.92;75.55
19286;BME280;9776;50.798;6.430;2023-08-06T10:03:28;99316.97;;;15.87;75.77
19286;BME280;9776;50.798;6.430;2023-08-06T10:05:55;99324.97;;;15.74;75.92
19286;BME280;9776;50.798;6.430;2023-08-06T10:08:22;99322.72;;;15.64;75.97
19286;BME280;9776;50.798;6.430;2023-08-06T10:10:50;99327.44;;;15.62;75.95
19286;BME280;9776;50.798;6.430;2023-08-06T10:13:19;99337.25;;;15.68;76.11
19286;BME280;9776;50.798;6.430;2023-08-06T10:15:48;99338.50;;;15.72;75.57
19286;BME280;9776;50.798;6.430;2023-08-06T10:18:16;99342.97;;;15.78;75.69
19286;BME280;9776;50.798;6.430;2023-08-06T10:20:46;99341.34;;;15.77;75.40
19286;BME280;9776;50.798;6.430;2023-08-06T10:23:13;99338.88;;;15.82;75.37
19286;BME280;9776;50.798;6.430;2023-08-06T10:25:41;99338.66;;;15.90;74.87
19286;BME280;9776;50.798;6.430;2023-08-06T10:28:10;99342.94;;;15.92;74.74
19286;BME280;9776;50.798;6.430;2023-08-06T10:30:42;99347.84;;;15.95;74.68
19286;BME280;9776;50.798;6.430;2023-08-06T10:33:10;99348.28;;;15.98;74.47
19286;BME280;9776;50.798;6.430;2023-08-06T10:35:37;99347.81;;;16.08;74.20
19286;BME280;9776;50.798;6.430;2023-08-06T10:38:07;99339.22;;;16.12;74.27
19286;BME280;9776;50.798;6.430;2023-08-06T10:40:35;99340.06;;;16.13;74.23
19286;BME280;9776;50.798;6.430;2023-08-06T10:43:03;99351.53;;;16.07;74.41
19286;BME280;9776;50.798;6.430;2023-08-06T10:45:35;99354.38;;;16.05;74.52
19286;BME280;9776;50.798;6.430;2023-08-06T10:48:03;99352.13;;;16.09;74.38
19286;BME280;9776;50.798;6.430;2023-08-06T10:50:30;99351.31;;;16.08;74.71
19286;BME280;9776;50.798;6.430;2023-08-06T10:52:57;99369.75;;;16.10;74.57
19286;BME280;9776;50.798;6.430;2023-08-06T10:55:30;99357.03;;;16.12;74.73
19286;BME280;9776;50.798;6.430;2023-08-06T10:57:57;99361.34;;;16.13;74.45
19286;BME280;9776;50.798;6.430;2023-08-06T11:00:24;99362.13;;;16.20;74.75
19286;BME280;9776;50.798;6.430;2023-08-06T11:02:53;99359.47;;;16.26;74.57
19286;BME280;9776;50.798;6.430;2023-08-06T11:05:20;99359.63;;;16.38;74.58
19286;BME280;9776;50.798;6.430;2023-08-06T11:07:46;99364.72;;;16.46;74.07
19286;BME280;9776;50.798;6.430;2023-08-06T11:10:15;99365.72;;;16.45;74.29
19286;BME280;9776;50.798;6.430;2023-08-06T11:12:42;99369.44;;;16.44;74.38
19286;BME280;9776;50.798;6.430;2023-08-06T11:15:09;99369.19;;;16.52;74.60
19286;BME280;9776;50.798;6.430;2023-08-06T11:17:37;99370.22;;;16.58;74.48
19286;BME280;9776;50.798;6.430;2023-08-06T11:20:08;99365.28;;;16.68;74.22
19286;BME280;9776;50.798;6.430;2023-08-06T11:22:36;99367.06;;;16.74;73.91
19286;BME280;9776;50.798;6.430;2023-08-06T11:25:04;99371.38;;;16.81;73.70
19286;BME280;9776;50.798;6.430;2023-08-06T11:27:31;99361.03;;;16.91;73.61
19286;BME280;9776;50.798;6.430;2023-08-06T11:29:58;99369.28;;;16.90;73.51
19286;BME280;9776;50.798;6.430;2023-08-06T11:32:24;99378.91;;;16.91;73.64
19286;BME280;9776;50.798;6.430;2023-08-06T11:34:53;99371.91;;;16.96;73.34
19286;BME280;9776;50.798;6.430;2023-08-06T11:37:22;99381.25;;;17.06;73.24
19286;BME280;9776;50.798;6.430;2023-08-06T11:39:50;99374.06;;;17.13;72.88
19286;BME280;9776;50.798;6.430;2023-08-06T11:42:17;99378.53;;;17.19;72.87
19286;BME280;9776;50.798;6.430;2023-08-06T11:44:44;99373.19;;;17.19;72.59
19286;BME280;9776;50.798;6.430;2023-08-06T11:47:14;99374.84;;;17.20;72.90
19286;BME280;9776;50.798;6.430;2023-08-06T11:49:43;99366.88;;;17.13;72.70
19286;BME280;9776;50.798;6.430;2023-08-06T11:52:15;99381.09;;;17.00;73.20
19286;BME280;9776;50.798;6.430;2023-08-06T11:54:46;99389.78;;;16.89;73.31
19286;BME280;9776;50.798;6.430;2023-08-06T11:57:13;99386.50;;;16.87;73.50
19286;BME280;9776;50.798;6.430;2023-08-06T11:59:40;99391.81;;;16.94;73.35
19286;BME280;9776;50.798;6.430;2023-08-06T12:02:08;99390.75;;;17.01;73.19
19286;BME280;9776;50.798;6.430;2023-08-06T12:05:00;99395.41;;;17.06;73.04
19286;BME280;9776;50.798;6.430;2023-08-06T12:07:28;99396.59;;;17.17;72.74
19286;BME280;9776;50.798;6.430;2023-08-06T12:09:57;99393.69;;;17.25;72.79
19286;BME280;9776;50.798;6.430;2023-08-06T12:12:24;99392.38;;;17.34;72.51
19286;BME280;9776;50.798;6.430;2023-08-06T12:14:50;99393.97;;;17.41;72.14
19286;BME280;9776;50.798;6.430;2023-08-06T12:17:17;99403.53;;;17.49;71.87
19286;BME280;9776;50.798;6.430;2023-08-06T12:19:44;99400.44;;;17.58;72.02
19286;BME280;9776;50.798;6.430;2023-08-06T12:22:13;99407.84;;;17.50;72.04
19286;BME280;9776;50.798;6.430;2023-08-06T12:24:40;99403.06;;;17.34;72.64
19286;BME280;9776;50.798;6.430;2023-08-06T12:27:09;99402.97;;;17.16;72.86
19286;BME280;9776;50.798;6.430;2023-08-06T12:29:36;99401.94;;;17.17;72.92
19286;BME280;9776;50.798;6.430;2023-08-06T12:32:03;99403.09;;;17.27;72.57
19286;BME280;9776;50.798;6.430;2023-08-06T12:34:30;99410.25;;;17.33;72.53
19286;BME280;9776;50.798;6.430;2023-08-06T12:36:57;99404.69;;;17.35;72.36
19286;BME280;9776;50.798;6.430;2023-08-06T12:39:24;99407.72;;;17.38;72.14
19286;BME280;9776;50.798;6.430;2023-08-06T12:41:51;99411.13;;;17.52;71.47
19286;BME280;9776;50.798;6.430;2023-08-06T12:44:19;99417.44;;;17.64;71.22
19286;BME280;9776;50.798;6.430;2023-08-06T12:46:45;99428.28;;;17.69;71.10
19286;BME280;9776;50.798;6.430;2023-08-06T12:49:12;99417.53;;;17.76;71.25
19286;BME280;9776;50.798;6.430;2023-08-06T12:51:39;99429.91;;;17.70;71.36
19286;BME280;9776;50.798;6.430;2023-08-06T12:54:05;99434.38;;;17.76;70.96
19286;BME280;9776;50.798;6.430;2023-08-06T12:56:32;99433.78;;;17.74;71.26
19286;BME280;9776;50.798;6.430;2023-08-06T12:58:59;99438.63;;;17.59;71.17
19286;BME280;9776;50.798;6.430;2023-08-06T13:01:27;99433.47;;;17.57;71.24
19286;BME280;9776;50.798;6.430;2023-08-06T13:03:53;99436.47;;;17.74;71.25
19286;BME280;9776;50.798;6.430;2023-08-06T13:06:20;99439.88;;;17.81;70.94
19286;BME280;9776;50.798;6.430;2023-08-06T13:08:47;99447.41;;;17.91;70.84
19286;BME280;9776;50.798;6.430;2023-08-06T13:11:13;99454.13;;;18.00;70.36